METAR Data
IDs: Format: Raw Decoded Include TAF

Data at: 0001 UTC 26 Oct 2021

KCFD 252355Z AUTO 15004KT 10SM CLR 27/22 A2994 RMK AO2 T02650223 10305 20265
KCFD 252335Z AUTO 14006KT 10SM CLR 27/23 A2993 RMK AO2 T02730225
KCFD 252315Z AUTO 14006KT 10SM CLR 28/23 A2992 RMK AO2 T02830225
KCFD 252250Z AUTO 14005KT 10SM CLR 29/23 A2992 RMK AO2 T02870225
KCFD 252235Z AUTO 14006KT 10SM CLR 29/22 A2992 RMK AO2 T02920224
KCFD 252215Z AUTO 15007KT 10SM CLR 30/22 A2992 RMK AO2 T03020223
KCFD 252155Z AUTO 13005KT 10SM CLR 31/22 A2992 RMK AO2 T03050223
KCFD 252135Z AUTO 16005KT 10SM CLR 30/23 A2992 RMK AO2 T03030225
KCFD 252115Z AUTO 14003KT 10SM CLR 30/23 A2992 RMK AO2 T03010225
KCFD 252055Z AUTO 18005KT 10SM CLR 30/23 A2992 RMK AO2 T03000225
KCFD 252035Z AUTO 13003KT 10SM CLR 30/23 A2993 RMK AO2 T02990226
KCFD 252015Z AUTO 15003KT 10SM SCT026 30/23 A2993 RMK AO2 T02980228
KCFD 251955Z AUTO 14004KT 10SM BKN024 30/23 A2994 RMK AO2 T02980230
KCFD 251935Z AUTO 15004KT 10SM BKN024 29/23 A2994 RMK AO2 T02910227
KCFD 251915Z AUTO 22005KT 10SM BKN024 29/23 A2995 RMK AO2 T02910226
KCFD 251855Z AUTO 21004KT 10SM SCT022 29/23 A2996 RMK AO2 T02880226
KCFD 251835Z AUTO 00000KT 10SM BKN020 28/23 A2997 RMK AO2 T02790225
KCFD 251815Z AUTO 27004KT 10SM OVC020 28/22 A2998 RMK AO2 T02770224
KCFD 251755Z AUTO 24003KT 10SM OVC018 28/22 A2999 RMK AO2 T02760224 10276 20228
KCFD 251735Z AUTO 00000KT 10SM OVC016 27/22 A3000 RMK AO2 T02720224
KCFD 251715Z AUTO 00000KT 10SM OVC014 26/22 A3000 RMK AO2 T02630223
KCFD 251655Z AUTO 00000KT 10SM OVC014 26/22 A3000 RMK AO2 T02570223
KCFD 251635Z AUTO 22003KT 10SM OVC012 25/22 A3000 RMK AO2 T02510224
KCFD 251615Z AUTO 00000KT 10SM OVC012 25/22 A3000 RMK AO2 T02500223
KCFD 251555Z AUTO 00000KT 10SM OVC010 25/22 A3000 RMK AO2 T02470223
KCFD 251535Z AUTO 25003KT 10SM OVC010 24/23 A3000 RMK AO2 T02420225
KCFD 251515Z AUTO 00000KT 10SM OVC008 24/23 A3000 RMK AO2 T02380225
KCFD 251455Z AUTO 20003KT 10SM OVC008 24/23 A3000 RMK AO2 T02370226
KCFD 251435Z AUTO 22003KT 10SM OVC008 24/23 A3000 RMK AO2 T02350226
KCFD 251415Z AUTO 25003KT 10SM OVC008 23/23 A3000 RMK AO2 T02330226
KCFD 251355Z AUTO 22004KT 10SM OVC008 23/22 A2999 RMK AO2 T02310223
KCFD 251335Z AUTO 22003KT 10SM OVC008 23/22 A2999 RMK AO2 T02310224
KCFD 251315Z AUTO 24004KT 10SM OVC008 23/23 A2998 RMK AO2 T02300226
KCFD 251255Z AUTO 00000KT 10SM OVC008 23/23 A2997 RMK AO2 T02290227
KCFD 251235Z AUTO 22003KT 10SM OVC008 23/23 A2997 RMK AO2 T02280228
KCFD 251215Z AUTO 25004KT 10SM OVC006 23/23 A2996 RMK AO2 T02280228
KCFD 251155Z AUTO 25003KT 10SM OVC006 23/23 A2995 RMK AO2 T02290229 10235 20222
KCFD 251135Z AUTO 00000KT 10SM OVC006 23/23 A2995 RMK AO2 T02280228
KCFD 251115Z AUTO 22004KT 10SM OVC006 23/23 A2994 RMK AO2 T02280228
KCFD 251055Z AUTO 00000KT 10SM OVC004 23/23 A2994 RMK AO2 T02270227
KCFD 251035Z AUTO 00000KT 10SM OVC004 23/23 A2993 RMK AO2 T02250225
KCFD 251015Z AUTO 21004KT 10SM BKN004 22/22 A2992 RMK AO2 T02240224
KCFD 250955Z AUTO 21006KT 10SM OVC004 23/23 A2992 RMK AO2 T02260226
KCFD 250935Z AUTO 22008KT 10SM OVC004 23/23 A2993 RMK AO2 T02270227
KCFD 250915Z AUTO 20006KT 10SM OVC004 23/23 A2992 RMK AO2 T02270227
KCFD 250855Z AUTO 19003KT 10SM OVC004 23/23 A2992 RMK AO2 T02250225
KCFD 250835Z AUTO 20003KT 10SM SCT004 23/23 A2992 RMK AO2 T02250225
KCFD 250815Z AUTO 20004KT 10SM SCT005 23/23 A2992 RMK AO2 T02260226
KCFD 250755Z AUTO 20005KT 10SM CLR 23/23 A2992 RMK AO2 T02280228
KCFD 250735Z AUTO 19005KT 10SM CLR 23/23 A2992 RMK AO2 T02300230
KCFD 250715Z AUTO 19005KT 10SM CLR 23/23 A2992 RMK AO2 T02310231
KCFD 250655Z AUTO 20005KT 10SM CLR 23/23 A2991 RMK AO2 T02330233
KCFD 250635Z AUTO 19006KT 10SM CLR 23/23 A2991 RMK AO2 T02320232
KCFD 250615Z AUTO 18004KT 10SM CLR 23/22 A2991 RMK AO2 T02270224
KCFD 250555Z AUTO 17003KT 10SM CLR 22/22 A2991 RMK AO2 T02240216 10271 20217 403050190
KCFD 250535Z AUTO 10SM CLR 22/22 A2991 RMK AO2 T02200215
KCFD 250515Z AUTO 10SM CLR 22/21 A2990 RMK AO2 T02180213
KCFD 250455Z AUTO 00000KT 10SM CLR 23/21 A2990 RMK AO2 T02260211
KCFD 250435Z AUTO 16004KT 10SM CLR 23/21 A2990 RMK AO2 T02300211
KCFD 250415Z AUTO 16004KT 10SM CLR 23/21 A2990 RMK AO2 T02290211
KCFD 250355Z AUTO 14004KT 10SM CLR 23/21 A2989 RMK AO2 T02250210
KCFD 250335Z AUTO 10SM SCT045 23/21 A2989 RMK AO2 T02290212
KCFD 250315Z AUTO 10SM SCT045 23/21 A2988 RMK AO2 T02290209
KCFD 250255Z AUTO 00000KT 10SM SCT047 23/21 A2987 RMK AO2 T02320212
KCFD 250235Z AUTO 00000KT 10SM BKN047 24/21 A2987 RMK AO2 T02380209
KCFD 250215Z AUTO 00000KT 10SM OVC045 24/21 A2987 RMK AO2 T02370205
KCFD 250155Z AUTO 00000KT 10SM SCT045 25/21 A2987 RMK AO2 T02480205
KCFD 250135Z AUTO 14003KT 10SM SCT045 24/21 A2985 RMK AO2 T02360205
KCFD 250115Z AUTO 00000KT 10SM BKN045 26/21 A2985 RMK AO2 T02640205
KCFD 250055Z AUTO 00000KT 10SM BKN045 26/20 A2985 RMK AO2 T02560204
KCFD 250035Z AUTO 18003KT 10SM SCT045 26/20 A2984 RMK AO2 T02630203
KCFD 250015Z AUTO 18003KT 10SM SCT045 26/20 A2984 RMK AO2 T02580203
KCFD 242355Z AUTO 00000KT 10SM SCT047 27/20 A2984 RMK AO2 T02710201 10305 20271
KCFD 242335Z AUTO 00000KT 10SM CLR 28/20 A2983 RMK AO2 T02760201
KCFD 242315Z AUTO 00000KT 10SM CLR 28/20 A2982 RMK AO2 T02840201
KCFD 242255Z AUTO 21004KT 10SM SCT043 29/20 A2982 RMK AO2 T02900199
KCFD 242235Z AUTO 17005KT 10SM SCT043 30/20 A2982 RMK AO2 T02960203
KCFD 242215Z AUTO 18006KT 10SM SCT041 30/20 A2982 RMK AO2 T02960201
KCFD 242155Z AUTO 16011G17KT 10SM BKN041 BKN048 30/21 A2981 RMK AO2 T03030205
KCFD 242135Z AUTO 18008KT 10SM SCT041 BKN048 31/21 A2982 RMK AO2 T03050207
KCFD 242115Z AUTO 19010G15KT 10SM SCT041 SCT047 30/20 A2982 RMK AO2 T03020203
KCFD 242055Z AUTO 19007KT 10SM SCT041 30/20 A2982 RMK AO2 T03030202
KCFD 242035Z AUTO 20004KT 10SM CLR 30/20 A2982 RMK AO2 T03010201
KCFD 242015Z AUTO 21007KT 10SM SCT040 SCT045 30/21 A2983 RMK AO2 T03010205
KCFD 241955Z AUTO 21006KT 10SM SCT038 BKN047 BKN055 30/20 A2983 RMK AO2 T02990203
KCFD 241935Z AUTO 17009KT 10SM SCT034 SCT039 SCT045 29/21 A2984 RMK AO2 T02870206
KCFD 241915Z AUTO 18006KT 10SM SCT034 SCT055 29/21 A2985 RMK AO2 T02910209
KCFD 241855Z AUTO 19008KT 10SM SCT030 SCT038 SCT055 28/21 A2985 RMK AO2 T02810209
KCFD 241835Z AUTO 16008KT 130V190 10SM SCT027 SCT032 BKN043 28/21 A2987 RMK AO2 T02780213
KCFD 241815Z AUTO 18005KT 10SM SCT027 BKN034 BKN045 28/21 A2989 RMK AO2 T02760208
KCFD 241755Z AUTO 19005KT 10SM SCT025 SCT034 BKN042 28/21 A2989 RMK AO2 T02760213 10284 20190
KCFD 241735Z AUTO 16009KT 10SM SCT023 BKN027 BKN036 27/22 A2989 RMK AO2 T02690216
KCFD 241715Z AUTO 20007KT 10SM BKN021 BKN028 BKN036 27/22 A2990 RMK AO2 T02670215
KCFD 241655Z AUTO 17008KT 10SM BKN019 OVC026 27/22 A2990 RMK AO2 T02690218
KCFD 241635Z AUTO 15008KT 10SM BKN017 OVC025 26/22 A2991 RMK AO2 T02590217
KCFD 241615Z AUTO 16008KT 10SM BKN015 26/22 A2992 RMK AO2 T02610218
KCFD 241555Z AUTO 17007KT 10SM BKN013 25/22 A2992 RMK AO2 T02530218
KCFD 241535Z AUTO 15007KT 10SM SCT011 SCT022 BKN029 25/22 A2992 RMK AO2 T02470216
KCFD 241515Z AUTO 15005KT 10SM SCT008 SCT027 OVC046 23/22 A2992 RMK AO2 T02340215
KCFD 241455Z AUTO 14006KT 10SM SCT008 SCT034 OVC042 22/21 A2992 RMK AO2 T02240212
KCFD 241435Z AUTO 13006KT 10SM SCT008 SCT020 OVC040 22/21 A2991 RMK AO2 T02160209
KCFD 241415Z AUTO 14003KT 10SM SCT017 BKN024 OVC040 22/21 A2991 RMK AO2 T02150206
KCFD 241355Z AUTO 12004KT 10SM BKN024 BKN033 OVC040 21/21 A2990 RMK AO2 T02050205
KCFD 241335Z AUTO 00000KT 10SM SCT021 BKN028 OVC040 20/20 A2989 RMK AO2 T01980198
KCFD 241315Z AUTO 10SM BKN021 BKN029 OVC038 20/20 A2988 RMK AO2 T01950195
KCFD 241255Z AUTO 00000KT 10SM SCT023 BKN028 OVC035 19/19 A2988 RMK AO2 T01920192
KCFD 241235Z AUTO 12003KT 10SM SCT022 BKN030 OVC035 19/19 A2988 RMK AO2 T01910191
KCFD 241215Z AUTO 13003KT 10SM SCT023 OVC031 19/19 A2987 RMK AO2 T01920192